LIMF/TRN METAR and TAF weather

Enter ICAO airport designator
Station Type Date Time Source
LIMF METAR 2022/12/04 11:20 UTC NOAA

LIMF 041120Z 18001KT 9999 SCT005 BKN030 08/07 Q1013


Station Type Date Time Source
LIMF Decoded METAR 2022/12/04 11:20 UTC NOAA

Torino / Caselle, Italy (LIMF) 45-13N 007-39E 287M
Dec 04, 2022 - 06:20 AM EST / 2022.12.04 1120 UTC
Wind: from the S (180 degrees) at 1 MPH (1 KT):0
Visibility: greater than 7 mile(s):0
Sky conditions: mostly cloudy
Temperature: 46 F (8 C)
Dew Point: 44 F (7 C)
Relative Humidity: 93%
Pressure (altimeter): 29.91 in. Hg (1013 hPa)
ob: LIMF 041120Z 18001KT 9999 SCT005 BKN030 08/07 Q1013
cycle: 11

Station Type Date Time Source
LIMF TAF 2022/12/04 12:25 UTC NOAA

TAF LIMF 041100Z 0412/0512 VRB05KT 7000 BKN020
TEMPO 0418/0424 4000 RA

Example: see airport list